Time;durP1;ratioP1;P1;durP2;ratioP2;P2;SDS_P1;SDS_P2;PMS_P1;PMS_P2;Temp;Humidity;BMP_temperature;BMP_pressure;BME280_temperature;BME280_humidity;BME280_pressure;Samples;Min_cycle;Max_cycle;Signal;HPM_P1;HPM_P2
2021/07/15 00:01:46;;;;;;;69.55;57.13;;;19.50;99.90;;;;;;5027842;28;20060;-56
2021/07/15 00:04:16;;;;;;;74.32;61.63;;;19.60;99.90;;;;;;5024321;28;20079;-53
2021/07/15 00:06:48;;;;;;;75.90;59.28;;;19.50;99.90;;;;;;5027518;28;20046;-53
2021/07/15 00:09:19;;;;;;;69.13;57.80;;;19.60;99.90;;;;;;5027992;28;20057;-55
2021/07/15 00:11:49;;;;;;;67.35;59.67;;;19.60;99.90;;;;;;5027603;28;20067;-54
2021/07/15 00:14:23;;;;;;;67.75;57.55;;;19.60;99.90;;;;;;5029202;28;20091;-55
2021/07/15 00:16:54;;;;;;;69.22;58.22;;;19.50;99.90;;;;;;5005865;28;20764;-55
2021/07/15 00:19:26;;;;;;;68.15;56.15;;;19.50;99.90;;;;;;5027570;28;20081;-54
2021/07/15 00:21:53;;;;;;;69.95;56.50;;;19.50;99.90;;;;;;5042265;28;20045;-54
2021/07/15 00:24:21;;;;;;;66.00;55.22;;;19.60;99.90;;;;;;5034246;28;20042;-55
2021/07/15 00:26:48;;;;;;;67.40;53.63;;;19.50;99.90;;;;;;5027770;28;20075;-53
2021/07/15 00:29:16;;;;;;;64.57;57.55;;;19.60;99.90;;;;;;5042406;28;20057;-52
2021/07/15 00:31:45;;;;;;;73.13;56.75;;;19.50;99.90;;;;;;5016174;28;20157;-53
2021/07/15 00:34:14;;;;;;;67.07;57.92;;;19.50;99.90;;;;;;5020584;28;20406;-53
2021/07/15 00:36:41;;;;;;;61.25;53.67;;;19.50;99.90;;;;;;5027086;28;20077;-50
2021/07/15 00:39:10;;;;;;;65.15;53.55;;;19.50;99.90;;;;;;5026527;28;20584;-49
2021/07/15 00:41:36;;;;;;;59.30;49.38;;;19.50;99.90;;;;;;5026963;28;20050;-53
2021/07/15 00:44:06;;;;;;;62.15;50.80;;;19.50;99.90;;;;;;5027374;28;20061;-53
2021/07/15 00:46:39;;;;;;;56.55;49.97;;;19.50;99.90;;;;;;5027022;28;20095;-50
2021/07/15 00:49:05;;;;;;;55.63;49.13;;;19.50;99.90;;;;;;5020232;28;20050;-52
2021/07/15 00:51:44;;;;;;;59.25;49.20;;;19.50;99.90;;;;;;5031633;28;20045;-49
2021/07/15 00:54:13;;;;;;;54.63;47.53;;;19.50;99.90;;;;;;5008139;28;20068;-51
2021/07/15 00:56:42;;;;;;;54.85;48.30;;;19.50;99.90;;;;;;5020893;28;20529;-50
2021/07/15 00:59:11;;;;;;;48.78;43.65;;;19.50;99.90;;;;;;5027451;28;20497;-53
2021/07/15 01:01:39;;;;;;;47.67;41.38;;;19.50;99.90;;;;;;5026997;28;20581;-49
2021/07/15 01:04:10;;;;;;;49.35;41.92;;;19.50;99.90;;;;;;5021257;28;20049;-48
2021/07/15 01:06:38;;;;;;;51.78;43.03;;;19.50;99.90;;;;;;5027790;28;20034;-52
2021/07/15 01:09:05;;;;;;;54.67;44.63;;;19.50;99.90;;;;;;5027461;28;20490;-52
2021/07/15 01:11:45;;;;;;;46.78;41.15;;;19.50;99.90;;;;;;5030995;28;20053;-51
2021/07/15 01:14:22;;;;;;;51.00;45.40;;;19.50;99.90;;;;;;5041304;28;20041;-50
2021/07/15 01:17:13;;;;;;;53.90;44.80;;;19.50;99.90;;;;;;5015958;28;20054;-51
2021/07/15 01:19:57;;;;;;;55.78;46.40;;;19.50;99.90;;;;;;5018694;28;20501;-52
2021/07/15 01:22:27;;;;;;;60.90;49.47;;;19.50;99.90;;;;;;5027399;28;20056;-49
2021/07/15 01:25:32;;;;;;;57.17;48.03;;;19.50;99.90;;;;;;5025064;28;20509;-52
2021/07/15 01:28:20;;;;;;;54.17;48.38;;;19.50;99.90;;;;;;5023408;28;20069;-50
2021/07/15 01:30:52;;;;;;;58.35;47.40;;;19.50;99.90;;;;;;5027092;28;20072;-50
2021/07/15 01:33:29;;;;;;;54.53;47.33;;;19.40;99.90;;;;;;5026994;28;20057;-53
2021/07/15 01:36:10;;;;;;;63.03;49.40;;;19.40;99.90;;;;;;5031379;28;20387;-52
2021/07/15 01:38:49;;;;;;;53.67;45.85;;;19.40;99.90;;;;;;5026365;28;20136;-52
2021/07/15 01:41:23;;;;;;;62.38;47.20;;;19.40;99.90;;;;;;5034396;28;20102;-51
2021/07/15 01:44:00;;;;;;;57.17;45.67;;;19.40;99.90;;;;;;5028103;28;20394;-49
2021/07/15 01:46:31;;;;;;;56.95;44.75;;;19.40;99.90;;;;;;5020656;28;20096;-53
2021/07/15 01:49:02;;;;;;;55.13;44.03;;;19.40;99.90;;;;;;5027035;28;20144;-49
2021/07/15 01:51:28;;;;;;;;;;;19.40;99.90;;;;;;5008508;28;20137;-52
2021/07/15 01:53:56;;;;;;;49.22;43.55;;;19.50;99.90;;;;;;5029276;28;20339;-52
2021/07/15 01:56:23;;;;;;;50.08;41.75;;;19.40;99.90;;;;;;5031729;28;20088;-49
2021/07/15 01:58:56;;;;;;;52.28;44.65;;;19.40;99.90;;;;;;5030240;28;20635;-51
2021/07/15 02:01:29;;;;;;;47.78;41.95;;;19.40;99.90;;;;;;5028417;28;20112;-53
2021/07/15 02:04:02;;;;;;;46.60;40.33;;;19.40;99.90;;;;;;5032863;28;20049;-52
2021/07/15 02:06:35;;;;;;;53.38;42.80;;;19.40;99.90;;;;;;5030585;28;20053;-50
2021/07/15 02:09:11;;;;;;;47.72;40.20;;;19.40;99.90;;;;;;5022874;28;20418;-52
2021/07/15 02:11:46;;;;;;;54.05;40.88;;;19.30;99.90;;;;;;5028563;28;20049;-50
2021/07/15 02:14:21;;;;;;;53.40;43.03;;;19.30;99.90;;;;;;5029733;28;20080;-52
2021/07/15 02:16:54;;;;;;;47.28;41.47;;;19.40;99.90;;;;;;5028732;28;20502;-49
2021/07/15 02:19:21;;;;;;;50.95;41.22;;;19.40;99.90;;;;;;5029714;28;20636;-51
2021/07/15 02:22:00;;;;;;;47.08;38.88;;;19.40;99.90;;;;;;5029703;28;20413;-52
2021/07/15 02:24:36;;;;;;;49.03;39.92;;;19.40;99.90;;;;;;5029847;28;20064;-52
2021/07/15 02:27:07;;;;;;;54.58;41.97;;;19.40;99.90;;;;;;5028905;28;20049;-48
2021/07/15 02:29:36;;;;;;;53.63;42.70;;;19.40;99.90;;;;;;5030158;28;20060;-50
2021/07/15 02:32:06;;;;;;;;;;;19.40;99.90;;;;;;5029512;28;20052;-51
2021/07/15 02:34:42;;;;;;;52.42;42.92;;;19.30;99.90;;;;;;5032895;28;19974;-49
2021/07/15 02:37:11;;;;;;;57.28;43.35;;;19.40;99.90;;;;;;5028228;28;20049;-49
2021/07/15 02:39:38;;;;;;;53.92;44.05;;;19.40;99.90;;;;;;5022847;28;20053;-51
2021/07/15 02:42:04;;;;;;;51.17;42.22;;;19.40;99.90;;;;;;5036354;28;20103;-50
2021/07/15 02:44:33;;;;;;;53.90;43.72;;;19.40;99.90;;;;;;5029382;28;20081;-49
2021/07/15 02:47:02;;;;;;;53.15;42.33;;;19.40;99.90;;;;;;5028755;28;20064;-51
2021/07/15 02:49:31;;;;;;;51.10;41.33;;;19.40;99.90;;;;;;5028850;28;20865;-49
2021/07/15 02:52:19;;;;;;;49.10;41.72;;;19.40;99.90;;;;;;5027555;28;20045;-51
2021/07/15 02:54:48;;;;;;;51.15;40.88;;;19.40;99.90;;;;;;5020162;28;20054;-49
2021/07/15 02:57:40;;;;;;;56.30;41.90;;;19.40;99.90;;;;;;5021294;28;20084;-49
2021/07/15 03:00:14;;;;;;;53.97;41.05;;;19.40;99.90;;;;;;5018135;28;20785;-51
2021/07/15 03:02:48;;;;;;;64.10;42.38;;;19.40;99.90;;;;;;5010577;28;20042;-50
2021/07/15 03:05:26;;;;;;;52.25;41.92;;;19.40;99.90;;;;;;5033983;28;20418;-52
2021/07/15 03:08:00;;;;;;;50.25;40.65;;;19.40;99.90;;;;;;5026178;28;20490;-51
2021/07/15 03:10:35;;;;;;;54.97;40.97;;;19.40;99.90;;;;;;5025429;28;20085;-50
2021/07/15 03:13:09;;;;;;;52.92;39.45;;;19.40;99.90;;;;;;5034450;28;20505;-52
2021/07/15 03:15:39;;;;;;;63.45;42.10;;;19.40;99.90;;;;;;5028703;28;20045;-51
2021/07/15 03:18:07;;;;;;;53.45;41.47;;;19.40;99.90;;;;;;5028434;28;20049;-50
2021/07/15 03:20:38;;;;;;;61.20;42.88;;;19.40;99.90;;;;;;5030658;28;20375;-52
2021/07/15 03:23:12;;;;;;;55.25;41.17;;;19.30;99.90;;;;;;5032594;28;20420;-50
2021/07/15 03:25:40;;;;;;;51.95;39.80;;;19.40;99.90;;;;;;5021588;28;20042;-49
2021/07/15 03:28:14;;;;;;;52.58;38.92;;;19.30;99.90;;;;;;5027498;28;20141;-50
2021/07/15 03:30:43;;;;;;;54.70;40.72;;;19.40;99.90;;;;;;5027545;28;20061;-51
2021/07/15 03:33:14;;;;;;;53.63;37.05;;;19.30;99.90;;;;;;5026772;28;20506;-50
2021/07/15 03:35:48;;;;;;;53.17;38.58;;;19.30;99.90;;;;;;5026155;28;20056;-50
2021/07/15 03:38:21;;;;;;;61.78;39.75;;;19.30;99.90;;;;;;5026857;28;20144;-50
2021/07/15 03:40:52;;;;;;;54.90;39.03;;;19.30;99.90;;;;;;5007139;28;20058;-53
2021/07/15 03:43:24;;;;;;;55.63;39.03;;;19.30;99.90;;;;;;5027508;28;20045;-48
2021/07/15 03:45:55;;;;;;;54.92;38.13;;;19.30;99.90;;;;;;5027517;28;20053;-51
2021/07/15 03:48:28;;;;;;;56.67;38.85;;;19.30;99.90;;;;;;5028065;28;20540;-50
2021/07/15 03:51:00;;;;;;;51.65;36.75;;;19.30;99.90;;;;;;5029090;28;20045;-53
2021/07/15 03:53:34;;;;;;;46.08;36.35;;;19.30;99.90;;;;;;5032866;28;20052;-50
2021/07/15 03:56:05;;;;;;;53.25;37.60;;;19.30;99.90;;;;;;5026363;28;20057;-51
2021/07/15 03:58:42;;;;;;;53.63;37.65;;;19.30;99.90;;;;;;5043941;28;20053;-50
2021/07/15 04:01:13;;;;;;;52.72;36.05;;;19.30;99.90;;;;;;5028158;28;20057;-50
2021/07/15 04:03:44;;;;;;;51.53;35.95;;;19.30;99.90;;;;;;5030290;28;20414;-53
2021/07/15 04:06:17;;;;;;;50.70;34.63;;;19.20;99.90;;;;;;5027951;28;20136;-53
2021/07/15 04:08:47;;;;;;;49.05;33.40;;;19.30;99.90;;;;;;5027583;28;20056;-51
2021/07/15 04:11:26;;;;;;;55.65;34.33;;;19.20;99.90;;;;;;5027841;28;20059;-54
2021/07/15 04:13:55;;;;;;;53.78;34.00;;;19.20;99.90;;;;;;5028717;28;20600;-49
2021/07/15 04:16:26;;;;;;;53.53;33.30;;;19.20;99.90;;;;;;5027549;28;20052;-53
2021/07/15 04:19:02;;;;;;;;;;;19.20;99.90;;;;;;5028416;28;20109;-51
2021/07/15 04:21:35;;;;;;;44.78;30.13;;;19.20;99.90;;;;;;5030988;28;19925;-52
2021/07/15 04:24:06;;;;;;;44.95;30.65;;;19.20;99.90;;;;;;5027837;28;20513;-50
2021/07/15 04:26:45;;;;;;;47.35;31.25;;;19.20;99.90;;;;;;5027920;28;20053;-51
2021/07/15 04:29:13;;;;;;;48.38;31.80;;;19.10;99.90;;;;;;5027374;28;20050;-54
2021/07/15 04:31:57;;;;;;;47.88;30.23;;;19.20;99.90;;;;;;5042829;28;20056;-52
2021/07/15 04:34:27;;;;;;;44.22;31.15;;;19.10;99.90;;;;;;5028993;28;20069;-51
2021/07/15 04:36:58;;;;;;;46.92;31.10;;;19.10;99.90;;;;;;5027765;28;20056;-49
2021/07/15 04:39:32;;;;;;;42.90;29.48;;;19.10;99.90;;;;;;5026937;28;20051;-52
2021/07/15 04:42:05;;;;;;;47.20;30.55;;;19.10;99.90;;;;;;5028098;28;20057;-49
2021/07/15 04:44:35;;;;;;;47.65;28.83;;;19.10;99.90;;;;;;5026387;28;20545;-51
2021/07/15 04:47:06;;;;;;;45.50;29.95;;;19.10;99.90;;;;;;5027966;28;20058;-51
2021/07/15 04:49:35;;;;;;;45.95;29.75;;;19.10;99.90;;;;;;5027000;28;20413;-54
2021/07/15 04:52:03;;;;;;;41.22;29.73;;;19.10;99.90;;;;;;5028241;28;20071;-49
2021/07/15 04:54:30;;;;;;;43.60;29.10;;;19.10;99.90;;;;;;5026927;28;20053;-53
2021/07/15 04:57:00;;;;;;;43.17;30.38;;;19.10;99.90;;;;;;5033227;28;20619;-51
2021/07/15 04:59:28;;;;;;;44.65;27.33;;;19.20;99.90;;;;;;5027374;28;20144;-51
2021/07/15 05:02:07;;;;;;;39.40;25.75;;;19.10;99.90;;;;;;5026856;28;20057;-51
2021/07/15 05:04:35;;;;;;;43.90;26.92;;;19.10;99.90;;;;;;5025135;28;20140;-52
2021/07/15 05:07:04;;;;;;;36.92;28.02;;;19.10;99.90;;;;;;5027295;28;20143;-57
2021/07/15 05:09:32;;;;;;;39.33;28.98;;;19.20;99.90;;;;;;5040739;28;20053;-53
2021/07/15 05:12:01;;;;;;;34.67;26.83;;;19.30;99.90;;;;;;5014792;28;20057;-52
2021/07/15 05:14:27;;;;;;;39.40;26.25;;;19.30;99.90;;;;;;5034181;28;20046;-57
2021/07/15 05:16:55;;;;;;;35.03;25.17;;;19.30;99.90;;;;;;5027387;28;20063;-58
2021/07/15 05:19:22;;;;;;;38.40;26.92;;;19.30;99.90;;;;;;5026754;28;20415;-57
2021/07/15 05:21:48;;;;;;;37.88;26.25;;;19.30;99.90;;;;;;5026707;28;20063;-54
2021/07/15 05:24:17;;;;;;;39.13;28.50;;;19.30;99.90;;;;;;5014134;28;20054;-52
2021/07/15 05:26:45;;;;;;;33.88;25.73;;;19.30;99.90;;;;;;5027467;28;20103;-53
2021/07/15 05:29:14;;;;;;;40.05;26.70;;;19.30;99.90;;;;;;5030025;28;20053;-52
2021/07/15 05:31:43;;;;;;;43.15;32.75;;;19.30;99.90;;;;;;5030167;28;20049;-44
2021/07/15 05:34:09;;;;;;;60.00;40.72;;;19.30;99.90;;;;;;5030757;28;20072;-47
2021/07/15 05:36:35;;;;;;;41.53;27.90;;;19.30;99.90;;;;;;5029875;28;20053;-44
2021/07/15 05:39:06;;;;;;;44.97;33.97;;;19.20;99.90;;;;;;5037401;28;20045;-48
2021/07/15 05:41:33;;;;;;;46.38;30.92;;;19.20;99.90;;;;;;5030361;28;20219;-46
2021/07/15 05:43:59;;;;;;;49.63;32.63;;;19.20;99.90;;;;;;5031687;28;20060;-45
2021/07/15 05:46:27;;;;;;;41.33;30.48;;;19.20;99.90;;;;;;5030949;28;20156;-47
2021/07/15 05:48:53;;;;;;;43.55;28.65;;;19.10;99.90;;;;;;5036901;28;20056;-50
2021/07/15 05:51:19;;;;;;;67.25;60.08;;;19.20;99.90;;;;;;5037011;28;20053;-48
2021/07/15 05:53:51;;;;;;;46.08;30.95;;;19.20;99.90;;;;;;5030523;28;20046;-48
2021/07/15 05:56:17;;;;;;;53.35;34.97;;;19.10;99.90;;;;;;5029462;28;20567;-46
2021/07/15 05:58:45;;;;;;;81.75;68.10;;;19.10;99.90;;;;;;5034565;28;20472;-48
2021/07/15 06:01:15;;;;;;;192.35;172.73;;;19.10;99.90;;;;;;5033113;28;20041;-51
2021/07/15 06:03:47;;;;;;;42.38;29.17;;;19.20;99.90;;;;;;5029094;28;20053;-50
2021/07/15 06:06:16;;;;;;;49.70;38.33;;;19.10;99.90;;;;;;5029099;28;20057;-52
2021/07/15 06:08:47;;;;;;;61.75;53.15;;;19.10;99.90;;;;;;5030599;28;20402;-49
2021/07/15 06:11:17;;;;;;;42.75;31.77;;;19.10;99.90;;;;;;5029589;28;20068;-51
2021/07/15 06:13:46;;;;;;;44.67;30.48;;;19.10;99.90;;;;;;5035870;28;20124;-49
2021/07/15 06:16:12;;;;;;;43.92;29.13;;;19.10;99.90;;;;;;5030415;28;20103;-48
2021/07/15 06:18:39;;;;;;;48.33;40.22;;;19.10;99.90;;;;;;5029949;28;20046;-51
2021/07/15 06:21:05;;;;;;;41.17;29.55;;;19.10;99.90;;;;;;5027352;28;20909;-52
2021/07/15 06:23:32;;;;;;;40.63;27.27;;;19.10;99.90;;;;;;5028763;28;20048;-54
2021/07/15 06:26:04;;;;;;;116.15;103.95;;;19.10;99.90;;;;;;5028179;28;20741;-56
2021/07/15 06:28:32;;;;;;;35.50;27.02;;;19.10;99.90;;;;;;5029195;28;20053;-55
2021/07/15 06:31:00;;;;;;;37.30;27.70;;;19.10;99.90;;;;;;5025423;28;20049;-56
2021/07/15 06:33:32;;;;;;;87.15;77.97;;;19.10;99.90;;;;;;5028544;28;20033;-56
2021/07/15 06:36:01;;;;;;;53.65;47.00;;;19.20;99.90;;;;;;5028477;28;20057;-55
2021/07/15 06:38:30;;;;;;;50.50;43.83;;;19.20;99.90;;;;;;5027813;28;20046;-55
2021/07/15 06:41:05;;;;;;;61.75;45.13;;;19.10;99.90;;;;;;5028074;28;20703;-54
2021/07/15 06:43:39;;;;;;;76.45;65.03;;;19.10;99.90;;;;;;5029172;28;20049;-55
2021/07/15 06:46:09;;;;;;;84.20;72.45;;;19.20;99.90;;;;;;5029212;28;20095;-54
2021/07/15 06:48:41;;;;;;;52.80;34.45;;;19.20;99.90;;;;;;5027794;28;20052;-54
2021/07/15 06:51:08;;;;;;;63.03;50.38;;;19.20;99.90;;;;;;5028845;28;20828;-55
2021/07/15 06:53:42;;;;;;;53.97;35.55;;;19.20;99.90;;;;;;5021095;28;20053;-55
2021/07/15 06:56:16;;;;;;;64.28;40.85;;;19.20;99.90;;;;;;5034850;28;20075;-55
2021/07/15 06:58:47;;;;;;;45.60;30.88;;;19.20;99.90;;;;;;5029326;28;20049;-58
2021/07/15 07:01:17;;;;;;;57.92;44.33;;;19.20;99.90;;;;;;5029607;28;20041;-59
2021/07/15 07:03:45;;;;;;;52.50;42.00;;;19.40;99.90;;;;;;5027951;28;20135;-58
2021/07/15 07:06:15;;;;;;;48.55;32.65;;;19.40;99.90;;;;;;5026756;28;20509;-58
2021/07/15 07:08:44;;;;;;;41.17;29.08;;;19.40;99.90;;;;;;5028696;28;20053;-57
2021/07/15 07:11:15;;;;;;;31.23;22.02;;;19.40;99.90;;;;;;5028270;28;20063;-57
2021/07/15 07:13:47;;;;;;;43.38;31.73;;;19.40;99.90;;;;;;5028090;28;20531;-57
2021/07/15 07:16:21;;;;;;;33.00;25.17;;;19.40;99.90;;;;;;5028846;28;20037;-57
2021/07/15 07:18:51;;;;;;;26.17;21.13;;;19.40;99.90;;;;;;5028337;28;20049;-57
2021/07/15 07:21:23;;;;;;;30.17;22.75;;;19.40;99.90;;;;;;5028277;28;20164;-57
2021/07/15 07:23:49;;;;;;;27.55;19.67;;;19.40;99.90;;;;;;5028298;28;20573;-58
2021/07/15 07:26:18;;;;;;;31.38;21.60;;;19.40;99.90;;;;;;5028406;28;20066;-58
2021/07/15 07:28:46;;;;;;;31.88;19.02;;;19.40;99.90;;;;;;5028412;28;20088;-58
2021/07/15 07:31:16;;;;;;;23.42;18.73;;;19.30;99.90;;;;;;5028631;28;20056;-57
2021/07/15 07:33:45;;;;;;;30.55;21.80;;;19.30;99.90;;;;;;5027736;28;20076;-57
2021/07/15 07:36:16;;;;;;;;;;;19.30;99.90;;;;;;5043350;28;20083;-57
2021/07/15 07:38:48;;;;;;;25.50;18.13;;;19.30;99.90;;;;;;5041746;28;19964;-57
2021/07/15 07:41:18;;;;;;;21.65;16.25;;;19.30;99.90;;;;;;5029174;28;20157;-56
2021/07/15 07:43:47;;;;;;;23.13;15.18;;;19.30;99.90;;;;;;5027294;28;20550;-57
2021/07/15 07:46:17;;;;;;;20.20;14.65;;;19.40;99.90;;;;;;5027010;28;20056;-56
2021/07/15 07:48:54;;;;;;;17.08;12.43;;;19.40;99.90;;;;;;5028950;28;20080;-57
2021/07/15 07:51:24;;;;;;;;;;;19.40;99.90;;;;;;5034766;28;20060;-57
2021/07/15 07:53:56;;;;;;;16.50;12.60;;;19.40;99.90;;;;;;5029464;28;19921;-58
2021/07/15 07:56:32;;;;;;;19.85;13.20;;;19.40;99.90;;;;;;5044075;28;20148;-55
2021/07/15 07:59:03;;;;;;;22.48;18.27;;;19.40;99.90;;;;;;5028919;28;20849;-55
2021/07/15 08:01:38;;;;;;;38.40;34.25;;;19.50;99.90;;;;;;5028197;28;20049;-55
2021/07/15 08:04:06;;;;;;;16.63;11.98;;;19.50;99.90;;;;;;5027903;28;20093;-55
2021/07/15 08:06:35;;;;;;;14.85;11.30;;;19.40;99.90;;;;;;5034074;28;20046;-55
2021/07/15 08:09:15;;;;;;;26.45;23.55;;;19.40;99.90;;;;;;5045043;28;20068;-56
2021/07/15 08:11:46;;;;;;;193.48;173.70;;;19.40;99.90;;;;;;5027505;28;20041;-55
2021/07/15 08:14:13;;;;;;;17.02;12.75;;;19.40;99.90;;;;;;5022783;28;20045;-56
2021/07/15 08:16:41;;;;;;;15.02;11.65;;;19.30;99.90;;;;;;5032270;28;20057;-56
2021/07/15 08:19:09;;;;;;;24.27;21.67;;;19.30;99.90;;;;;;5029010;28;20056;-56
2021/07/15 08:21:43;;;;;;;18.90;16.48;;;19.30;99.90;;;;;;5028053;28;20045;-55
2021/07/15 08:24:12;;;;;;;12.27;10.02;;;19.30;99.90;;;;;;5027802;28;20056;-57
2021/07/15 08:26:41;;;;;;;20.40;18.23;;;19.30;99.90;;;;;;5029692;28;20052;-57
2021/07/15 08:29:10;;;;;;;10.13;7.82;;;19.20;99.90;;;;;;5027802;28;20076;-57
2021/07/15 08:31:36;;;;;;;12.57;10.70;;;19.20;99.90;;;;;;5011756;28;20692;-57
2021/07/15 08:34:09;;;;;;;10.60;9.50;;;19.20;99.90;;;;;;5025908;28;20073;-57
2021/07/15 08:36:41;;;;;;;13.50;10.88;;;19.20;99.90;;;;;;5034777;28;20113;-57
2021/07/15 08:39:14;;;;;;;14.25;12.80;;;19.20;99.90;;;;;;5027912;28;20117;-57
2021/07/15 08:41:42;;;;;;;14.25;9.85;;;19.20;99.90;;;;;;5027684;28;20565;-58
2021/07/15 08:44:16;;;;;;;11.98;9.80;;;19.20;99.90;;;;;;5028840;28;20080;-59
2021/07/15 08:46:49;;;;;;;14.68;11.43;;;19.10;99.90;;;;;;5032509;28;20493;-58
2021/07/15 08:49:23;;;;;;;14.98;11.50;;;19.10;99.90;;;;;;5034180;28;20053;-57
2021/07/15 08:51:49;;;;;;;13.88;10.45;;;19.10;99.90;;;;;;5034192;28;20068;-57
2021/07/15 08:54:18;;;;;;;36.65;28.50;;;19.10;99.90;;;;;;5026107;28;20053;-57
2021/07/15 08:56:47;;;;;;;31.05;26.00;;;19.10;99.90;;;;;;5027415;28;20076;-56
2021/07/15 08:59:21;;;;;;;26.35;18.40;;;19.10;99.90;;;;;;5027209;28;20057;-58
2021/07/15 09:01:50;;;;;;;37.70;29.85;;;19.00;99.90;;;;;;5027353;28;20064;-58
2021/07/15 09:04:20;;;;;;;27.60;22.95;;;19.00;99.90;;;;;;5033231;28;20137;-55
2021/07/15 09:06:47;;;;;;;28.98;24.85;;;19.10;99.90;;;;;;5030162;28;20045;-56
2021/07/15 09:09:14;;;;;;;31.52;27.55;;;19.00;99.90;;;;;;5030211;28;20490;-58
2021/07/15 09:11:42;;;;;;;61.25;55.00;;;19.00;99.90;;;;;;5030321;28;20045;-59
2021/07/15 09:14:21;;;;;;;85.75;76.65;;;19.20;99.90;;;;;;5030714;28;20049;-57
2021/07/15 09:16:51;;;;;;;44.65;35.70;;;19.20;99.90;;;;;;5031133;28;20045;-57
2021/07/15 09:19:22;;;;;;;24.23;17.08;;;19.10;99.90;;;;;;5030643;28;20237;-56
2021/07/15 09:21:52;;;;;;;31.38;24.48;;;19.20;99.90;;;;;;5032238;28;20127;-58
2021/07/15 09:24:39;;;;;;;27.20;19.27;;;19.20;99.90;;;;;;5044676;28;20053;-58
2021/07/15 09:27:24;;;;;;;19.42;14.80;;;19.20;99.90;;;;;;5028634;28;20519;-57
2021/07/15 09:30:15;;;;;;;26.33;18.45;;;19.20;99.90;;;;;;5030756;28;20560;-56
2021/07/15 09:32:53;;;;;;;29.40;26.35;;;19.30;99.90;;;;;;5027024;28;20049;-57
2021/07/15 09:35:32;;;;;;;20.33;14.05;;;19.30;99.90;;;;;;5027648;28;20052;-57
2021/07/15 09:38:16;;;;;;;41.50;35.10;;;19.40;99.90;;;;;;5031191;28;20799;-58
2021/07/15 09:40:51;;;;;;;41.53;37.10;;;19.50;99.90;;;;;;5031800;28;20440;-56
2021/07/15 09:43:35;;;;;;;32.50;28.77;;;19.50;99.90;;;;;;5028478;28;20052;-58
2021/07/15 09:46:18;;;;;;;27.90;19.42;;;19.50;99.90;;;;;;5044980;28;20049;-56
2021/07/15 09:48:50;;;;;;;31.25;26.17;;;19.50;99.90;;;;;;5032515;28;20045;-58
2021/07/15 09:51:18;;;;;;;30.67;27.45;;;19.60;99.90;;;;;;5029488;28;20054;-58
2021/07/15 09:53:47;;;;;;;32.13;28.45;;;19.60;99.90;;;;;;5028922;28;20045;-57
2021/07/15 09:56:19;;;;;;;29.27;26.30;;;19.60;99.90;;;;;;5030420;28;20482;-58
2021/07/15 09:58:55;;;;;;;44.10;39.13;;;19.60;99.90;;;;;;5030170;28;20401;-59
2021/07/15 10:01:33;;;;;;;29.50;25.65;;;19.60;99.90;;;;;;5029675;28;20048;-59
2021/07/15 10:04:05;;;;;;;26.35;21.35;;;19.50;99.90;;;;;;5033367;28;20049;-59
2021/07/15 10:06:47;;;;;;;19.98;15.15;;;19.50;99.90;;;;;;5032078;28;20128;-59
2021/07/15 10:09:43;;;;;;;20.77;17.70;;;19.40;99.90;;;;;;5026135;28;20060;-59
2021/07/15 10:12:26;;;;;;;34.08;29.40;;;19.40;99.90;;;;;;5024763;28;20120;-58
2021/07/15 10:15:07;;;;;;;15.23;12.02;;;19.40;99.90;;;;;;5030676;28;20050;-59
2021/07/15 10:17:42;;;;;;;17.42;14.60;;;19.40;99.90;;;;;;5037981;28;20516;-60
2021/07/15 10:20:18;;;;;;;19.80;16.35;;;19.40;99.90;;;;;;5029610;28;20115;-59
2021/07/15 10:22:54;;;;;;;19.20;13.70;;;19.50;99.90;;;;;;5040156;28;20042;-58
2021/07/15 10:25:22;;;;;;;60.67;54.45;;;19.50;99.90;;;;;;5028881;28;20512;-59
2021/07/15 10:27:56;;;;;;;64.13;57.20;;;19.50;99.90;;;;;;5029634;28;20683;-59
2021/07/15 10:30:22;;;;;;;46.40;38.70;;;19.60;99.90;;;;;;5021500;28;20063;-59
2021/07/15 10:32:49;;;;;;;34.35;28.42;;;19.60;99.90;;;;;;5029736;28;20466;-59
2021/07/15 10:35:22;;;;;;;30.80;23.25;;;19.50;99.90;;;;;;5024929;28;20051;-58
2021/07/15 10:37:49;;;;;;;30.42;24.80;;;19.60;99.90;;;;;;5028955;28;20068;-58
2021/07/15 10:40:18;;;;;;;30.23;22.60;;;19.50;99.90;;;;;;5033832;28;20091;-58
2021/07/15 10:42:44;;;;;;;28.77;22.50;;;19.50;99.90;;;;;;5034670;28;20564;-59
2021/07/15 10:45:14;;;;;;;29.60;22.50;;;19.50;99.90;;;;;;5032229;28;20046;-59
2021/07/15 10:47:43;;;;;;;22.50;15.60;;;19.50;99.90;;;;;;5029266;28;20107;-58
2021/07/15 10:50:14;;;;;;;33.05;21.55;;;19.50;99.90;;;;;;5030696;28;20069;-59
2021/07/15 10:52:43;;;;;;;21.50;14.35;;;19.50;99.90;;;;;;5029515;28;20049;-59
2021/07/15 10:55:10;;;;;;;29.02;17.73;;;19.60;99.90;;;;;;5027938;28;20140;-59
2021/07/15 10:57:36;;;;;;;24.02;14.65;;;19.50;99.90;;;;;;5028218;28;20049;-57
2021/07/15 11:00:25;;;;;;;20.77;15.30;;;19.60;99.90;;;;;;5028807;28;20060;-59
2021/07/15 11:03:11;;;;;;;23.45;14.52;;;19.60;99.90;;;;;;5028605;28;20111;-58
2021/07/15 11:05:46;;;;;;;27.05;15.30;;;19.70;99.90;;;;;;5029513;28;20044;-59
2021/07/15 11:08:14;;;;;;;22.73;17.10;;;19.70;99.90;;;;;;5029451;28;20045;-59
2021/07/15 11:10:40;;;;;;;29.17;15.52;;;19.70;99.90;;;;;;5027270;28;20148;-58
2021/07/15 11:13:08;;;;;;;24.55;14.98;;;19.70;99.90;;;;;;5021372;28;20137;-59
2021/07/15 11:15:55;;;;;;;23.42;14.95;;;19.70;99.90;;;;;;5025114;28;20045;-59
2021/07/15 11:19:06;;;;;;;25.98;14.75;;;19.70;99.90;;;;;;5024185;28;20075;-58
2021/07/15 11:21:36;;;;;;;31.07;15.53;;;19.60;99.90;;;;;;5030625;28;20050;-58
2021/07/15 11:24:08;;;;;;;27.27;15.87;;;19.60;99.90;;;;;;5029045;28;20077;-58
2021/07/15 11:26:41;;;;;;;124.55;112.22;;;19.50;99.90;;;;;;5027761;28;20296;-58
2021/07/15 11:29:12;;;;;;;35.05;26.38;;;19.60;99.90;;;;;;5032255;28;20062;-58
2021/07/15 11:31:44;;;;;;;33.40;22.77;;;19.60;99.90;;;;;;5028243;28;20045;-59
2021/07/15 11:34:30;;;;;;;34.90;23.02;;;19.60;99.90;;;;;;5037876;28;20055;-59
2021/07/15 11:37:25;;;;;;;30.75;22.58;;;19.70;99.90;;;;;;5030998;28;20049;-58
2021/07/15 11:39:56;;;;;;;32.42;22.25;;;19.70;99.90;;;;;;5038196;28;20111;-59
2021/07/15 11:42:28;;;;;;;45.40;38.50;;;19.70;99.90;;;;;;5023010;28;20076;-59
2021/07/15 11:45:12;;;;;;;24.53;17.47;;;19.70;99.90;;;;;;5030220;28;20049;-59
2021/07/15 11:47:58;;;;;;;27.80;19.42;;;19.70;99.90;;;;;;5024492;28;20050;-59
2021/07/15 11:50:31;;;;;;;27.05;18.20;;;19.70;99.90;;;;;;5031858;28;20803;-59
2021/07/15 11:53:25;;;;;;;30.52;21.00;;;19.80;99.90;;;;;;5028588;28;20077;-59
2021/07/15 11:56:02;;;;;;;27.33;18.65;;;19.80;99.90;;;;;;5008686;28;20126;-59
2021/07/15 11:58:40;;;;;;;25.25;15.05;;;19.80;99.90;;;;;;5019635;28;20508;-59
2021/07/15 12:01:20;;;;;;;23.70;14.10;;;19.90;99.90;;;;;;5028593;28;20053;-59
2021/07/15 12:04:04;;;;;;;25.13;14.32;;;20.00;99.90;;;;;;5028013;28;20128;-58
2021/07/15 12:06:42;;;;;;;23.55;13.27;;;20.10;99.90;;;;;;5008260;28;20054;-58
2021/07/15 12:09:13;;;;;;;52.75;43.85;;;20.10;99.90;;;;;;5025779;28;20046;-61
2021/07/15 12:11:45;;;;;;;154.88;139.65;;;20.10;99.90;;;;;;5031615;28;20480;-62
2021/07/15 12:14:18;;;;;;;26.38;16.98;;;20.10;99.90;;;;;;5036595;28;20516;-59
2021/07/15 12:16:49;;;;;;;23.48;13.98;;;20.10;99.90;;;;;;5031494;28;20045;-61
2021/07/15 12:19:18;;;;;;;32.05;21.98;;;20.20;99.90;;;;;;5034939;28;20582;-59
2021/07/15 12:21:46;;;;;;;103.28;93.53;;;20.30;99.90;;;;;;5027835;28;20045;-61
2021/07/15 12:24:19;;;;;;;32.08;27.40;;;20.40;99.90;;;;;;5027669;28;20053;-58
2021/07/15 12:26:58;;;;;;;32.72;24.92;;;20.40;99.90;;;;;;5027090;28;20049;-61
2021/07/15 12:29:32;;;;;;;43.95;37.20;;;20.50;99.90;;;;;;5027648;28;20064;-59
2021/07/15 12:31:59;;;;;;;27.65;19.90;;;20.60;99.90;;;;;;5028273;28;20095;-59
2021/07/15 12:34:31;;;;;;;27.42;19.48;;;20.80;99.90;;;;;;5040346;28;20098;-55
2021/07/15 12:37:02;;;;;;;26.52;13.98;;;20.80;99.90;;;;;;5022365;28;20042;-59
2021/07/15 12:39:33;;;;;;;31.63;24.17;;;20.80;99.90;;;;;;5019958;28;20049;-53
2021/07/15 12:42:04;;;;;;;39.25;31.17;;;20.70;99.90;;;;;;5028004;28;20054;-59
2021/07/15 12:44:33;;;;;;;42.78;32.97;;;20.50;99.90;;;;;;5011421;28;20052;-61
2021/07/15 12:47:02;;;;;;;30.23;23.92;;;20.50;99.90;;;;;;5032304;28;20144;-55
2021/07/15 12:49:31;;;;;;;30.23;20.80;;;20.40;99.90;;;;;;5023436;28;20057;-57
2021/07/15 12:51:59;;;;;;;19.27;11.82;;;20.30;99.90;;;;;;5027399;28;20049;-54
2021/07/15 12:54:33;;;;;;;23.85;14.32;;;20.30;99.90;;;;;;5042598;28;20132;-55